createdAt,value
2018-10-07T00:01:14.238Z,99981.48
2018-10-07T00:03:43.578Z,99990.62
2018-10-07T00:06:14.960Z,99987.63
2018-10-07T00:08:43.595Z,99984.17
2018-10-07T00:11:13.765Z,99988.69
2018-10-07T00:13:43.579Z,99996.23
2018-10-07T00:18:57.832Z,99996.00
2018-10-07T00:21:25.927Z,99998.33
2018-10-07T00:23:54.001Z,99998.92
2018-10-07T00:26:22.093Z,99997.65
2018-10-07T00:28:50.173Z,100000.09
2018-10-07T00:31:18.259Z,100007.35
2018-10-07T00:33:46.367Z,100004.77
2018-10-07T00:36:14.455Z,100007.35
2018-10-07T00:38:42.560Z,100005.41
2018-10-07T00:41:10.735Z,100010.45
2018-10-07T00:43:38.821Z,100009.37
2018-10-07T00:46:06.983Z,100010.58
2018-10-07T00:48:35.080Z,100018.40
2018-10-07T00:51:03.178Z,100023.58
2018-10-07T00:53:31.291Z,100017.61
2018-10-07T00:55:59.519Z,100020.27
2018-10-07T00:58:27.627Z,100028.53
2018-10-07T01:00:56.124Z,100028.92
2018-10-07T01:03:24.284Z,100025.28
2018-10-07T01:05:52.384Z,100021.98
2018-10-07T01:08:20.468Z,100024.70
2018-10-07T01:10:48.540Z,100026.87
2018-10-07T01:13:16.660Z,100027.77
2018-10-07T01:15:44.761Z,100029.72
2018-10-07T01:18:12.846Z,100035.97
2018-10-07T01:20:40.931Z,100033.97
2018-10-07T01:23:09.037Z,100040.13
2018-10-07T01:25:37.190Z,100032.03
2018-10-07T01:28:05.305Z,100043.18
2018-10-07T01:30:33.439Z,100047.42
2018-10-07T01:33:01.561Z,100040.99
2018-10-07T01:35:29.638Z,100041.33
2018-10-07T01:37:57.721Z,100039.28
2018-10-07T01:40:25.827Z,100044.84
2018-10-07T01:42:53.972Z,100040.22
2018-10-07T01:45:22.087Z,100047.75
2018-10-07T01:47:50.167Z,100042.20
2018-10-07T01:50:18.247Z,100039.25
2018-10-07T01:52:46.401Z,100035.55
2018-10-07T01:55:14.867Z,100036.23
2018-10-07T01:57:42.971Z,100027.17
2018-10-07T02:00:11.056Z,100036.22
2018-10-07T02:02:39.144Z,100041.18
2018-10-07T02:05:07.320Z,100041.91
2018-10-07T02:07:35.351Z,100051.29
2018-10-07T02:10:03.448Z,100052.94
2018-10-07T02:12:31.548Z,100049.30
2018-10-07T02:14:59.647Z,100053.13
2018-10-07T02:17:27.743Z,100039.63
2018-10-07T02:19:55.836Z,100041.69
2018-10-07T02:22:23.923Z,100039.41
2018-10-07T02:24:52.030Z,100041.57
2018-10-07T02:27:20.107Z,100043.74
2018-10-07T02:29:48.200Z,100045.80
2018-10-07T02:32:16.412Z,100052.47
2018-10-07T02:34:44.496Z,100057.25
2018-10-07T02:37:12.583Z,100066.22
2018-10-07T02:39:40.700Z,100070.84
2018-10-07T02:42:08.780Z,100078.55
2018-10-07T02:44:36.855Z,100073.41
2018-10-07T02:47:04.972Z,100058.30
2018-10-07T02:49:33.084Z,100072.30
2018-10-07T02:52:01.186Z,100075.59
2018-10-07T02:54:29.277Z,100064.67
2018-10-07T02:56:57.347Z,100068.77
2018-10-07T02:59:25.621Z,100067.64
2018-10-07T03:01:53.774Z,100067.23
2018-10-07T03:04:21.871Z,100071.77
2018-10-07T03:06:49.971Z,100071.04
2018-10-07T03:09:18.079Z,100079.06
2018-10-07T03:11:46.168Z,100079.81
2018-10-07T03:14:14.261Z,100074.53
2018-10-07T03:16:42.364Z,100075.80
2018-10-07T03:19:10.482Z,100073.52
2018-10-07T03:21:38.568Z,100072.49
2018-10-07T03:24:06.804Z,100091.09
2018-10-07T03:26:34.898Z,100097.16
2018-10-07T03:29:02.995Z,100101.60
2018-10-07T03:31:31.079Z,100111.89
2018-10-07T03:33:59.161Z,100128.55
2018-10-07T03:36:27.241Z,100117.99
2018-10-07T03:38:55.328Z,100107.79
2018-10-07T03:41:23.414Z,100109.65
2018-10-07T03:43:51.508Z,100108.52
2018-10-07T03:46:19.590Z,100115.91
2018-10-07T03:48:47.693Z,100129.82
2018-10-07T03:51:15.796Z,100115.13
2018-10-07T03:53:43.859Z,100120.95
2018-10-07T03:56:11.944Z,100125.67
2018-10-07T03:58:40.039Z,100137.81
2018-10-07T04:01:08.131Z,100133.80
2018-10-07T04:03:36.264Z,100139.01
2018-10-07T04:06:04.334Z,100133.47
2018-10-07T04:08:32.457Z,100130.31
2018-10-07T04:11:00.609Z,100143.97
2018-10-07T04:13:28.719Z,100143.88
2018-10-07T04:15:56.811Z,100129.31
2018-10-07T04:18:24.890Z,100137.62
2018-10-07T04:20:53.116Z,100152.02
2018-10-07T04:23:21.246Z,100139.59
2018-10-07T04:25:49.487Z,100146.05
2018-10-07T04:28:17.599Z,100159.77
2018-10-07T04:30:45.729Z,100171.41
2018-10-07T04:33:13.828Z,100167.19
2018-10-07T04:35:41.924Z,100183.68
2018-10-07T04:38:10.112Z,100163.27
2018-10-07T04:40:38.215Z,100170.79
2018-10-07T04:43:06.308Z,100170.08
2018-10-07T04:45:34.419Z,100158.55
2018-10-07T04:48:02.544Z,100170.81
2018-10-07T04:50:30.721Z,100186.70
2018-10-07T04:52:58.810Z,100179.47
2018-10-07T04:55:26.962Z,100181.13
2018-10-07T04:57:55.079Z,100186.84
2018-10-07T05:00:23.280Z,100179.80
2018-10-07T05:02:51.306Z,100187.41
2018-10-07T05:05:19.408Z,100183.48
2018-10-07T05:07:47.487Z,100196.05
2018-10-07T05:10:57.405Z,100188.56
2018-10-07T05:13:26.109Z,100199.34
2018-10-07T05:15:55.613Z,100208.03
2018-10-07T05:18:24.063Z,100212.47
2018-10-07T05:20:52.590Z,100219.48
2018-10-07T05:23:20.815Z,100225.72
2018-10-07T05:25:48.978Z,100225.18
2018-10-07T05:28:17.500Z,100226.19
2018-10-07T05:30:45.639Z,100224.55
2018-10-07T05:33:13.879Z,100224.47
2018-10-07T05:35:42.321Z,100222.67
2018-10-07T05:38:10.474Z,100226.94
2018-10-07T05:40:38.583Z,100232.48
2018-10-07T05:43:06.670Z,100236.58
2018-10-07T05:45:34.779Z,100241.94
2018-10-07T05:48:02.932Z,100244.86
2018-10-07T05:50:31.051Z,100250.84
2018-10-07T05:52:59.195Z,100257.52
2018-10-07T05:55:27.306Z,100265.33
2018-10-07T05:57:57.698Z,100275.44
2018-10-07T06:00:27.302Z,100279.24
2018-10-07T06:03:15.511Z,100287.06
2018-10-07T06:05:43.823Z,100291.73
2018-10-07T06:08:12.892Z,100298.14
2018-10-07T06:10:41.048Z,100300.31
2018-10-07T06:13:09.184Z,100308.63
2018-10-07T06:15:38.147Z,100316.78
2018-10-07T06:18:06.430Z,100323.42
2018-10-07T06:20:34.566Z,100331.70
2018-10-07T06:23:02.673Z,100334.79
2018-10-07T06:25:30.821Z,100343.02
2018-10-07T06:27:58.938Z,100340.63
2018-10-07T06:30:27.089Z,100348.16
2018-10-07T06:32:55.164Z,100342.67
2018-10-07T06:35:24.140Z,100349.88
2018-10-07T06:37:52.260Z,100346.06
2018-10-07T06:40:20.359Z,100351.95
2018-10-07T06:42:48.487Z,100353.54
2018-10-07T06:45:16.601Z,100362.53
2018-10-07T06:47:44.678Z,100363.25
2018-10-07T06:50:12.833Z,100375.02
2018-10-07T06:52:40.936Z,100363.25
2018-10-07T06:55:09.069Z,100365.77
2018-10-07T06:57:37.164Z,100367.09
2018-10-07T07:00:05.938Z,100375.95
2018-10-07T07:02:34.045Z,100384.05
2018-10-07T07:05:02.158Z,100383.75
2018-10-07T07:07:30.268Z,100380.06
2018-10-07T07:09:58.363Z,100393.05
2018-10-07T07:12:26.467Z,100387.51
2018-10-07T07:14:54.578Z,100392.09
2018-10-07T07:17:22.760Z,100397.58
2018-10-07T07:19:51.006Z,100398.02
2018-10-07T07:22:19.079Z,100407.34
2018-10-07T07:24:47.185Z,100414.81
2018-10-07T07:27:15.379Z,100404.56
2018-10-07T07:29:43.520Z,100408.22
2018-10-07T07:32:11.646Z,100405.56
2018-10-07T07:34:39.780Z,100410.60
2018-10-07T07:37:07.874Z,100401.52
2018-10-07T07:39:35.971Z,100415.59
2018-10-07T07:42:04.104Z,100417.06
2018-10-07T07:44:32.264Z,100418.64
2018-10-07T07:47:00.372Z,100420.50
2018-10-07T07:49:28.487Z,100427.72
2018-10-07T07:51:56.601Z,100433.19
2018-10-07T07:54:24.679Z,100438.56
2018-10-07T07:56:52.818Z,100441.16
2018-10-07T07:59:20.908Z,100444.28
2018-10-07T08:01:49.030Z,100444.87
2018-10-07T08:04:17.169Z,100455.09
2018-10-07T08:06:45.273Z,100446.09
2018-10-07T08:09:13.357Z,100457.14
2018-10-07T08:11:41.466Z,100460.47
2018-10-07T08:14:09.725Z,100461.06
2018-10-07T08:16:37.795Z,100465.94
2018-10-07T08:19:05.905Z,100467.19
2018-10-07T08:21:34.056Z,100471.20
2018-10-07T08:24:02.196Z,100473.59
2018-10-07T08:26:30.352Z,100479.41
2018-10-07T08:28:58.471Z,100485.89
2018-10-07T08:31:26.606Z,100490.36
2018-10-07T08:33:54.735Z,100489.11
2018-10-07T08:36:22.868Z,100484.64
2018-10-07T08:38:51.014Z,100487.10
2018-10-07T08:41:19.128Z,100498.05
2018-10-07T08:43:47.226Z,100494.97
2018-10-07T08:46:15.320Z,100502.69
2018-10-07T08:48:43.417Z,100499.27
2018-10-07T08:51:11.531Z,100508.02
2018-10-07T08:53:39.736Z,100507.68
2018-10-07T08:56:07.982Z,100506.09
2018-10-07T08:58:35.999Z,100522.61
2018-10-07T09:01:04.140Z,100513.60
2018-10-07T09:03:32.788Z,100534.19
2018-10-07T09:06:00.871Z,100526.66
2018-10-07T09:08:28.984Z,100536.75
2018-10-07T09:10:57.091Z,100544.09
2018-10-07T09:13:25.223Z,100552.48
2018-10-07T09:15:53.316Z,100558.51
2018-10-07T09:18:21.471Z,100562.08
2018-10-07T09:20:49.619Z,100560.62
2018-10-07T09:23:17.667Z,100566.97
2018-10-07T09:25:45.760Z,100570.50
2018-10-07T09:28:13.877Z,100576.15
2018-10-07T09:30:41.963Z,100580.73
2018-10-07T09:33:10.124Z,100580.72
2018-10-07T09:35:38.284Z,100590.59
2018-10-07T09:38:06.398Z,100597.34
2018-10-07T09:40:34.555Z,100588.65
2018-10-07T09:43:02.656Z,100595.64
2018-10-07T09:45:30.812Z,100596.60
2018-10-07T09:47:59.136Z,100600.58
2018-10-07T09:50:27.284Z,100607.75
2018-10-07T09:52:55.413Z,100607.48
2018-10-07T09:55:23.519Z,100608.23
2018-10-07T09:57:51.726Z,100613.16
2018-10-07T10:00:24.919Z,100615.02
2018-10-07T10:02:53.020Z,100619.87
2018-10-07T10:05:21.138Z,100619.32
2018-10-07T10:07:49.230Z,100632.16
2018-10-07T10:10:17.623Z,100624.43
2018-10-07T10:12:46.015Z,100623.05
2018-10-07T10:15:14.127Z,100625.56
2018-10-07T10:17:46.157Z,100628.39
2018-10-07T10:20:14.935Z,100643.96
2018-10-07T10:23:04.980Z,100633.22
2018-10-07T10:25:40.060Z,100640.23
2018-10-07T10:28:17.529Z,100631.71
2018-10-07T10:33:03.740Z,100633.59
2018-10-07T10:36:41.059Z,100642.75
2018-10-07T10:39:18.723Z,100652.70
2018-10-07T10:41:59.283Z,100653.64
2018-10-07T10:44:40.019Z,100647.30
2018-10-07T10:47:12.403Z,100650.39
2018-10-07T10:49:53.597Z,100638.05
2018-10-07T10:53:43.071Z,100645.34
2018-10-07T10:56:31.460Z,100645.47
2018-10-07T11:01:15.476Z,100650.33
2018-10-07T11:04:00.947Z,100649.70
2018-10-07T11:08:47.519Z,100658.20
2018-10-07T11:11:23.531Z,100651.03
2018-10-07T11:14:03.547Z,100650.85
2018-10-07T11:18:49.354Z,100649.44
2018-10-07T11:23:29.940Z,100639.69
2018-10-07T11:26:03.797Z,100632.53
2018-10-07T11:28:40.118Z,100633.64
2018-10-07T11:31:14.265Z,100636.98
2018-10-07T11:35:58.131Z,100638.75
2018-10-07T11:38:34.406Z,100646.34
2018-10-07T11:42:10.904Z,100641.88
2018-10-07T11:45:16.666Z,100648.11
2018-10-07T11:48:04.987Z,100660.45
2018-10-07T11:50:41.933Z,100658.05
2018-10-07T11:53:23.078Z,100648.29
2018-10-07T11:55:51.187Z,100654.79
2018-10-07T11:58:19.333Z,100653.75
2018-10-07T12:00:47.416Z,100650.95
2018-10-07T12:03:15.544Z,100645.84
2018-10-07T12:05:43.649Z,100655.19
2018-10-07T12:08:11.731Z,100649.71
2018-10-07T12:10:39.836Z,100648.45
2018-10-07T12:13:07.932Z,100657.27
2018-10-07T12:15:36.009Z,100651.72
2018-10-07T12:18:04.116Z,100662.70
2018-10-07T12:20:32.211Z,100656.69
2018-10-07T12:23:00.332Z,100656.80
2018-10-07T12:25:28.427Z,100661.91
2018-10-07T12:27:56.538Z,100669.08
2018-10-07T12:30:24.639Z,100666.56
2018-10-07T12:32:52.780Z,100673.23
2018-10-07T12:35:20.876Z,100672.77
2018-10-07T12:37:48.998Z,100670.50
2018-10-07T12:40:17.105Z,100687.53
2018-10-07T12:42:45.284Z,100682.61
2018-10-07T12:45:13.292Z,100700.50
2018-10-07T12:47:41.399Z,100696.98
2018-10-07T12:50:09.515Z,100696.28
2018-10-07T12:52:38.532Z,100692.84
2018-10-07T12:55:06.628Z,100686.77
2018-10-07T12:57:34.748Z,100691.94
2018-10-07T13:00:02.884Z,100693.88
2018-10-07T13:02:31.003Z,100711.23
2018-10-07T13:04:59.132Z,100713.17
2018-10-07T13:07:27.340Z,100710.30
2018-10-07T13:09:55.448Z,100715.99
2018-10-07T13:12:23.628Z,100720.41
2018-10-07T13:14:51.763Z,100720.72
2018-10-07T13:17:19.881Z,100723.82
2018-10-07T13:19:48.123Z,100731.73
2018-10-07T13:22:16.225Z,100733.20
2018-10-07T13:24:44.323Z,100732.53
2018-10-07T13:27:12.399Z,100741.23
2018-10-07T13:29:40.488Z,100734.78
2018-10-07T13:32:08.628Z,100747.25
2018-10-07T13:34:36.762Z,100742.60
2018-10-07T13:37:04.881Z,100752.84
2018-10-07T13:39:33.661Z,100762.39
2018-10-07T13:42:01.767Z,100762.67
2018-10-07T13:44:29.873Z,100761.06
2018-10-07T13:46:57.983Z,100753.33
2018-10-07T13:49:26.071Z,100755.23
2018-10-07T13:51:54.190Z,100757.62
2018-10-07T13:54:22.317Z,100766.76
2018-10-07T13:56:50.487Z,100757.14
2018-10-07T13:59:18.716Z,100762.34
2018-10-07T14:01:46.940Z,100763.14
2018-10-07T14:04:15.143Z,100768.25
2018-10-07T14:06:43.270Z,100771.63
2018-10-07T14:09:11.372Z,100772.39
2018-10-07T14:11:39.492Z,100785.36
2018-10-07T14:14:07.571Z,100787.61
2018-10-07T14:16:35.677Z,100793.15
2018-10-07T14:19:03.784Z,100798.61
2018-10-07T14:21:31.872Z,100805.33
2018-10-07T14:24:00.013Z,100804.86
2018-10-07T14:26:28.079Z,100812.78
2018-10-07T14:28:56.190Z,100819.30
2018-10-07T14:31:24.332Z,100812.73
2018-10-07T14:33:52.424Z,100816.87
2018-10-07T14:36:20.525Z,100820.59
2018-10-07T14:38:48.641Z,100821.11
2018-10-07T14:41:16.774Z,100826.45
2018-10-07T14:43:44.933Z,100819.20
2018-10-07T14:46:13.039Z,100828.39
2018-10-07T14:48:41.164Z,100827.94
2018-10-07T14:51:09.360Z,100833.44
2018-10-07T14:53:37.819Z,100830.97
2018-10-07T14:56:05.995Z,100833.21
2018-10-07T14:58:34.077Z,100836.55
2018-10-07T15:01:02.284Z,100822.64
2018-10-07T15:03:30.344Z,100819.71
2018-10-07T15:05:58.543Z,100819.42
2018-10-07T15:08:27.599Z,100819.41
2018-10-07T15:10:55.760Z,100824.73
2018-10-07T15:13:23.859Z,100820.59
2018-10-07T15:15:51.956Z,100809.99
2018-10-07T15:18:20.061Z,100815.80
2018-10-07T15:23:22.599Z,100818.73
2018-10-07T15:25:50.768Z,100817.58
2018-10-07T15:28:18.868Z,100811.76
2018-10-07T15:30:47.016Z,100810.66
2018-10-07T15:33:15.204Z,100802.09
2018-10-07T15:35:43.435Z,100806.14
2018-10-07T15:38:11.495Z,100805.45
2018-10-07T15:40:39.700Z,100808.10
2018-10-07T15:43:07.817Z,100802.09
2018-10-07T15:45:35.912Z,100797.00
2018-10-07T15:48:04.022Z,100807.02
2018-10-07T15:50:32.904Z,100806.55
2018-10-07T15:53:00.939Z,100809.98
2018-10-07T15:55:29.029Z,100815.70
2018-10-07T15:57:57.110Z,100817.69
2018-10-07T16:00:25.208Z,100815.34
2018-10-07T16:02:53.321Z,100823.63
2018-10-07T16:05:21.450Z,100822.47
2018-10-07T16:07:49.585Z,100821.67
2018-10-07T16:10:17.782Z,100832.36
2018-10-07T16:12:45.907Z,100829.52
2018-10-07T16:15:13.967Z,100830.41
2018-10-07T16:17:42.180Z,100833.81
2018-10-07T16:20:10.239Z,100850.67
2018-10-07T16:22:38.462Z,100860.67
2018-10-07T16:25:06.577Z,100856.91
2018-10-07T16:27:34.815Z,100859.77
2018-10-07T16:30:03.820Z,100860.67
2018-10-07T16:32:31.941Z,100871.05
2018-10-07T16:35:00.045Z,100875.49
2018-10-07T16:37:28.195Z,100880.89
2018-10-07T16:39:56.304Z,100881.02
2018-10-07T16:42:24.423Z,100881.84
2018-10-07T16:44:52.586Z,100891.11
2018-10-07T16:47:20.795Z,100893.98
2018-10-07T16:49:48.951Z,100887.30
2018-10-07T16:52:17.056Z,100886.97
2018-10-07T16:54:45.214Z,100888.09
2018-10-07T16:57:13.977Z,100899.38
2018-10-07T16:59:44.047Z,100896.29
2018-10-07T17:02:13.556Z,100905.20
2018-10-07T17:04:43.680Z,100907.72
2018-10-07T17:07:13.099Z,100911.32
2018-10-07T17:09:53.796Z,100908.13
2018-10-07T17:12:22.351Z,100910.19
2018-10-07T17:14:55.818Z,100922.13
2018-10-07T17:17:26.092Z,100917.25
2018-10-07T17:19:54.561Z,100913.31
2018-10-07T17:22:24.302Z,100917.86
2018-10-07T17:24:53.376Z,100921.90
2018-10-07T17:27:23.061Z,100931.02
2018-10-07T17:29:54.494Z,100936.09
2018-10-07T17:32:28.072Z,100933.91
2018-10-07T17:35:08.915Z,100942.63
2018-10-07T17:37:45.726Z,100955.66
2018-10-07T17:40:14.915Z,100957.00
2018-10-07T17:42:46.001Z,100953.28
2018-10-07T17:45:23.174Z,100959.27
2018-10-07T17:47:53.220Z,100964.58
2018-10-07T17:50:24.571Z,100966.53
2018-10-07T17:52:54.629Z,100970.44
2018-10-07T17:55:28.733Z,100974.49
2018-10-07T17:57:57.504Z,100979.98
2018-10-07T18:00:31.311Z,100986.82
2018-10-07T18:03:00.551Z,100982.06
2018-10-07T18:05:30.117Z,100991.07
2018-10-07T18:08:00.218Z,100999.52
2018-10-07T18:10:29.795Z,100993.23
2018-10-07T18:13:00.827Z,100996.30
2018-10-07T18:15:42.401Z,100994.25
2018-10-07T18:18:14.196Z,100990.83
2018-10-07T18:20:45.201Z,101002.50
2018-10-07T18:23:15.144Z,101006.14
2018-10-07T18:25:43.851Z,101012.83
2018-10-07T18:28:12.721Z,101020.69
2018-10-07T18:30:42.136Z,101022.34
2018-10-07T18:33:17.924Z,101018.87
2018-10-07T18:35:55.974Z,101018.66
2018-10-07T18:38:29.671Z,101016.81
2018-10-07T18:41:06.128Z,101018.06
2018-10-07T18:43:39.035Z,101024.04
2018-10-07T18:46:12.844Z,101021.44
2018-10-07T18:48:47.047Z,101024.75
2018-10-07T18:51:50.042Z,101021.44
2018-10-07T18:54:24.225Z,101031.20
2018-10-07T18:57:09.818Z,101030.07
2018-10-07T18:59:40.636Z,101024.19
2018-10-07T19:02:12.371Z,101027.47
2018-10-07T19:04:44.291Z,101030.16
2018-10-07T19:07:23.263Z,101030.13
2018-10-07T19:10:02.764Z,101037.92
2018-10-07T19:13:01.060Z,101045.03
2018-10-07T19:15:35.338Z,101052.26
2018-10-07T19:18:08.105Z,101050.37
2018-10-07T19:20:47.396Z,101057.84
2018-10-07T19:23:16.824Z,101056.28
2018-10-07T19:25:49.606Z,101054.94
2018-10-07T19:28:30.148Z,101060.11
2018-10-07T19:31:09.008Z,101066.70
2018-10-07T19:33:39.860Z,101058.01
2018-10-07T19:36:09.731Z,101061.13
2018-10-07T19:38:42.552Z,101068.51
2018-10-07T19:41:11.204Z,101069.59
2018-10-07T19:43:46.407Z,101069.22
2018-10-07T19:46:21.960Z,101078.41
2018-10-07T19:48:54.502Z,101081.73
2018-10-07T19:51:25.938Z,101069.14
2018-10-07T19:53:59.194Z,101078.71
2018-10-07T19:56:28.219Z,101075.75
2018-10-07T19:59:00.873Z,101072.05
2018-10-07T20:01:37.389Z,101069.89
2018-10-07T20:04:12.978Z,101066.55
2018-10-07T20:06:42.347Z,101071.82
2018-10-07T20:09:12.301Z,101071.37
2018-10-07T20:11:43.316Z,101073.02
2018-10-07T20:14:13.016Z,101080.83
2018-10-07T20:16:41.417Z,101084.95
2018-10-07T20:19:17.631Z,101084.09
2018-10-07T20:21:57.703Z,101085.44
2018-10-07T20:24:28.534Z,101091.31
2018-10-07T20:27:00.396Z,101097.60
2018-10-07T20:29:31.982Z,101093.64
2018-10-07T20:32:02.100Z,101104.54
2018-10-07T20:34:41.936Z,101108.23
2018-10-07T20:37:20.809Z,101111.48
2018-10-07T20:39:51.781Z,101113.30
2018-10-07T20:42:26.226Z,101118.84
2018-10-07T20:45:04.032Z,101116.80
2018-10-07T20:47:42.673Z,101113.38
2018-10-07T20:50:31.977Z,101113.75
2018-10-07T20:53:02.312Z,101110.70
2018-10-07T20:55:33.625Z,101118.95
2018-10-07T20:58:06.746Z,101114.72
2018-10-07T21:00:40.266Z,101108.78
2018-10-07T21:03:19.588Z,101109.55
2018-10-07T21:05:52.710Z,101114.45
2018-10-07T21:08:24.198Z,101116.77
2018-10-07T21:10:55.691Z,101121.44
2018-10-07T21:13:26.001Z,101120.53
2018-10-07T21:15:56.572Z,101121.44
2018-10-07T21:18:29.959Z,101120.09
2018-10-07T21:20:59.825Z,101127.81
2018-10-07T21:23:37.965Z,101126.54
2018-10-07T21:26:13.809Z,101123.85
2018-10-07T21:28:46.348Z,101130.33
2018-10-07T21:31:18.996Z,101120.46
2018-10-07T21:33:51.943Z,101124.05
2018-10-07T21:36:22.201Z,101127.61
2018-10-07T21:39:01.050Z,101127.88
2018-10-07T21:41:33.338Z,101128.03
2018-10-07T21:44:06.614Z,101135.09
2018-10-07T21:48:13.066Z,101127.23
2018-10-07T21:50:49.621Z,101127.47
2018-10-07T21:53:19.199Z,101125.69
2018-10-07T21:58:32.160Z,101129.45
2018-10-07T22:01:03.188Z,101129.85
2018-10-07T22:11:43.392Z,101128.17
2018-10-07T22:14:13.144Z,101127.23
2018-10-07T22:16:51.652Z,101129.02
2018-10-07T22:19:20.768Z,101127.09
2018-10-07T22:21:52.258Z,101122.80
2018-10-07T22:24:25.413Z,101118.84
2018-10-07T22:26:56.226Z,101110.06
2018-10-07T22:29:26.325Z,101114.30
2018-10-07T22:32:18.242Z,101112.05
2018-10-07T22:34:51.710Z,101106.69
2018-10-07T22:37:24.824Z,101100.66
2018-10-07T22:39:55.033Z,101099.83
2018-10-07T22:42:28.138Z,101105.98
2018-10-07T22:45:01.042Z,101094.52
2018-10-07T22:47:31.114Z,101110.01
2018-10-07T22:50:03.446Z,101107.59
2018-10-07T22:52:32.077Z,101106.97
2018-10-07T22:55:02.651Z,101103.44
2018-10-07T22:57:35.597Z,101108.51
2018-10-07T23:00:05.469Z,101099.88
2018-10-07T23:02:34.924Z,101103.20
2018-10-07T23:05:05.535Z,101101.36
2018-10-07T23:07:33.613Z,101110.97
2018-10-07T23:10:01.775Z,101104.92
2018-10-07T23:12:29.907Z,101105.26
2018-10-07T23:14:58.018Z,101107.20
2018-10-07T23:17:26.104Z,101103.38
2018-10-07T23:19:54.201Z,101102.73
2018-10-07T23:22:22.263Z,101104.55
2018-10-07T23:24:50.368Z,101105.19
2018-10-07T23:27:18.446Z,101101.52
2018-10-07T23:29:46.645Z,101109.94
2018-10-07T23:32:14.716Z,101112.95
2018-10-07T23:34:42.835Z,101109.77
2018-10-07T23:37:10.944Z,101096.29
2018-10-07T23:39:39.124Z,101104.70
2018-10-07T23:42:07.230Z,101099.92
2018-10-07T23:44:35.323Z,101098.98
2018-10-07T23:47:03.417Z,101099.61
2018-10-07T23:49:31.520Z,101095.02
2018-10-07T23:51:59.704Z,101100.83
2018-10-07T23:54:27.724Z,101100.83
2018-10-07T23:56:55.806Z,101100.08
2018-10-07T23:59:23.886Z,101098.96
